Yasa Emirhan — V7OC3 — position and weather

sailwx.info

Track history (hours):
 
Tides and Currents Weather Stations Pressure Air Temp Water Temp Dewpoint Dewpoint Depression Visibility Wind Speed Wind Dir Waves Ship Positions

Yasa Emirhan

Last reported at 2017-Nov-15 07:34 UTC. Time now 2017-Nov-24 04:03 UTC.
Position N 08°54' W 015°08'.
Warning: this ship's position is 8 days out of date.

Length 190 m; draft 10.5 m.

Type: Cargo ship. MMSI: 538003057.

Date/timePositionNaut miles runAvg speedWind from/ knotsBaromVisibWave heightAir tempDewpointWater temp
2017-Nov-15 07:34N 08°54' W 015°08'412.6
2017-Nov-15 07:13N 08°55' W 015°12'612.4
2017-Nov-15 06:46N 08°57' W 015°18'1812.7
2017-Nov-15 05:20N 09°01' W 015°35'1012.7
2017-Nov-15 04:34N 09°05' W 015°45'512.8
2017-Nov-15 04:10N 09°06' W 015°50'1312.7
2017-Nov-15 03:06N 09°10' W 016°03'  
2017-Nov-11 14:13N 26°02' W 015°33'313.1
2017-Nov-11 14:00N 26°05' W 015°31'813.3
2017-Nov-11 13:24N 26°11' W 015°26'513.2
2017-Nov-11 13:00N 26°16' W 015°23'713.0
2017-Nov-11 12:30N 26°21' W 015°19'3012.7
2017-Nov-11 10:07N 26°44' W 014°57'112.6
2017-Nov-11 10:00N 26°45' W 014°56'712.7
2017-Nov-11 09:28N 26°50' W 014°51'712.7
2017-Nov-11 08:57N 26°55' W 014°46'612.7
2017-Nov-11 08:30N 26°59' W 014°41'612.9
2017-Nov-11 08:00N 27°04' W 014°36'713.0
2017-Nov-11 07:30N 27°09' W 014°31'713.1
2017-Nov-11 07:00N 27°13' W 014°26'713.1
2017-Nov-11 06:30N 27°18' W 014°21'613.0
2017-Nov-11 06:00N 27°23' W 014°16'713.4
2017-Nov-11 05:30N 27°27' W 014°11'713.4
2017-Nov-11 05:00N 27°32' W 014°06'713.7
2017-Nov-11 04:30N 27°37' W 014°00'713.8
2017-Nov-11 04:00N 27°42' W 013°55'713.6
2017-Nov-11 03:29N 27°47' W 013°49'713.5
2017-Nov-11 03:00N 27°52' W 013°44'713.2
2017-Nov-11 02:30N 27°57' W 013°40'612.9
2017-Nov-11 02:00N 28°02' W 013°35'712.8
2017-Nov-11 01:29N 28°07' W 013°30'712.8
2017-Nov-11 00:58N 28°12' W 013°25'612.9
2017-Nov-11 00:30N 28°17' W 013°21'813.0
2017-Nov-10 23:55N 28°23' W 013°17'512.9
2017-Nov-10 23:30N 28°28' W 013°13'713.1
2017-Nov-10 23:00N 28°33' W 013°09'713.5
2017-Nov-10 22:30N 28°39' W 013°05'713.4
2017-Nov-10 22:00N 28°44' W 013°01'712.9
2017-Nov-10 21:30N 28°50' W 012°57'612.3
2017-Nov-10 21:00N 28°55' W 012°53'712.7
2017-Nov-10 20:30N 29°00' W 012°49'712.8
2017-Nov-10 19:58N 29°06' W 012°45'712.6
2017-Nov-10 19:27N 29°12' W 012°41'612.5
2017-Nov-10 19:00N 29°17' W 012°37'712.8
2017-Nov-10 18:29N 29°22' W 012°33'612.3
2017-Nov-10 18:00N 29°27' W 012°30'610.9
2017-Nov-10 17:25N 29°32' W 012°25'512.9
2017-Nov-10 17:00N 29°37' W 012°22'612.9
2017-Nov-10 16:30N 29°42' W 012°18'813.2
2017-Nov-10 15:54N 29°49' W 012°13'1413.1
2017-Nov-10 14:50N 30°00' W 012°04'3912.8
2017-Nov-10 11:50N 30°33' W 011°40'412.5
2017-Nov-10 11:29N 30°36' W 011°37'812.6
2017-Nov-10 10:50N 30°43' W 011°32'1612.8
2017-Nov-10 09:36N 30°56' W 011°22'213.0
2017-Nov-10 09:29N 30°58' W 011°21'613.1
2017-Nov-10 09:00N 31°03' W 011°17'713.0
2017-Nov-10 08:30N 31°08' W 011°13'713.1
2017-Nov-10 08:00N 31°14' W 011°08'913.0
2017-Nov-10 07:20N 31°21' W 011°03'512.7
2017-Nov-10 06:58N 31°25' W 010°60'612.6
2017-Nov-10 06:30N 31°30' W 010°56'912.5
2017-Nov-10 05:49N 31°37' W 010°50'412.4
2017-Nov-10 05:30N 31°40' W 010°48'812.5
2017-Nov-10 04:50N 31°48' W 010°43'412.5
2017-Nov-10 04:30N 31°51' W 010°41'713.0
2017-Nov-10 04:00N 31°56' W 010°36'612.8
2017-Nov-10 03:30N 32°01' W 010°31'813.0
2017-Nov-10 02:54N 32°07' W 010°25'513.1
2017-Nov-10 02:30N 32°11' W 010°21'712.7
2017-Nov-10 01:59N 32°17' W 010°17'613.0
2017-Nov-10 01:30N 32°21' W 010°12'713.3
2017-Nov-10 01:00N 32°26' W 010°06'  
Track history (hours):
 
Tides and Currents Weather Stations Pressure Air Temp Water Temp Dewpoint Dewpoint Depression Visibility Wind Speed Wind Dir Waves Ship Positions

Yasa Emirhan

Last reported at 2017-Nov-15 07:34 UTC. Time now 2017-Nov-24 04:03 UTC.
Position N 08°54' W 015°08'.
Warning: this ship's position is 8 days out of date.

Length 190 m; draft 10.5 m.

Type: Cargo ship. MMSI: 538003057.

Date/timePositionNaut miles runAvg speedWind from/ knotsBaromVisibWave heightAir tempDewpointWater temp
2017-Nov-15 07:34N 08°54' W 015°08'412.6
2017-Nov-15 07:13N 08°55' W 015°12'612.4
2017-Nov-15 06:46N 08°57' W 015°18'1812.7
2017-Nov-15 05:20N 09°01' W 015°35'1012.7
2017-Nov-15 04:34N 09°05' W 015°45'512.8
2017-Nov-15 04:10N 09°06' W 015°50'1312.7
2017-Nov-15 03:06N 09°10' W 016°03'  
2017-Nov-11 14:13N 26°02' W 015°33'313.1
2017-Nov-11 14:00N 26°05' W 015°31'813.3
2017-Nov-11 13:24N 26°11' W 015°26'513.2
2017-Nov-11 13:00N 26°16' W 015°23'713.0
2017-Nov-11 12:30N 26°21' W 015°19'3012.7
2017-Nov-11 10:07N 26°44' W 014°57'112.6
2017-Nov-11 10:00N 26°45' W 014°56'712.7
2017-Nov-11 09:28N 26°50' W 014°51'712.7
2017-Nov-11 08:57N 26°55' W 014°46'612.7
2017-Nov-11 08:30N 26°59' W 014°41'612.9
2017-Nov-11 08:00N 27°04' W 014°36'713.0
2017-Nov-11 07:30N 27°09' W 014°31'713.1
2017-Nov-11 07:00N 27°13' W 014°26'713.1
2017-Nov-11 06:30N 27°18' W 014°21'613.0
2017-Nov-11 06:00N 27°23' W 014°16'713.4
2017-Nov-11 05:30N 27°27' W 014°11'713.4
2017-Nov-11 05:00N 27°32' W 014°06'713.7
2017-Nov-11 04:30N 27°37' W 014°00'713.8
2017-Nov-11 04:00N 27°42' W 013°55'713.6
2017-Nov-11 03:29N 27°47' W 013°49'713.5
2017-Nov-11 03:00N 27°52' W 013°44'713.2
2017-Nov-11 02:30N 27°57' W 013°40'612.9
2017-Nov-11 02:00N 28°02' W 013°35'712.8
2017-Nov-11 01:29N 28°07' W 013°30'712.8
2017-Nov-11 00:58N 28°12' W 013°25'612.9
2017-Nov-11 00:30N 28°17' W 013°21'813.0
2017-Nov-10 23:55N 28°23' W 013°17'512.9
2017-Nov-10 23:30N 28°28' W 013°13'713.1
2017-Nov-10 23:00N 28°33' W 013°09'713.5
2017-Nov-10 22:30N 28°39' W 013°05'713.4
2017-Nov-10 22:00N 28°44' W 013°01'712.9
2017-Nov-10 21:30N 28°50' W 012°57'612.3
2017-Nov-10 21:00N 28°55' W 012°53'712.7
2017-Nov-10 20:30N 29°00' W 012°49'712.8
2017-Nov-10 19:58N 29°06' W 012°45'712.6
2017-Nov-10 19:27N 29°12' W 012°41'612.5
2017-Nov-10 19:00N 29°17' W 012°37'712.8
2017-Nov-10 18:29N 29°22' W 012°33'612.3
2017-Nov-10 18:00N 29°27' W 012°30'610.9
2017-Nov-10 17:25N 29°32' W 012°25'512.9
2017-Nov-10 17:00N 29°37' W 012°22'612.9
2017-Nov-10 16:30N 29°42' W 012°18'813.2
2017-Nov-10 15:54N 29°49' W 012°13'1413.1
2017-Nov-10 14:50N 30°00' W 012°04'3912.8
2017-Nov-10 11:50N 30°33' W 011°40'412.5
2017-Nov-10 11:29N 30°36' W 011°37'812.6
2017-Nov-10 10:50N 30°43' W 011°32'1612.8
2017-Nov-10 09:36N 30°56' W 011°22'213.0
2017-Nov-10 09:29N 30°58' W 011°21'613.1
2017-Nov-10 09:00N 31°03' W 011°17'713.0
2017-Nov-10 08:30N 31°08' W 011°13'713.1
2017-Nov-10 08:00N 31°14' W 011°08'913.0
2017-Nov-10 07:20N 31°21' W 011°03'512.7
2017-Nov-10 06:58N 31°25' W 010°60'612.6
2017-Nov-10 06:30N 31°30' W 010°56'912.5
2017-Nov-10 05:49N 31°37' W 010°50'412.4
2017-Nov-10 05:30N 31°40' W 010°48'812.5
2017-Nov-10 04:50N 31°48' W 010°43'412.5
2017-Nov-10 04:30N 31°51' W 010°41'713.0
2017-Nov-10 04:00N 31°56' W 010°36'612.8
2017-Nov-10 03:30N 32°01' W 010°31'813.0
2017-Nov-10 02:54N 32°07' W 010°25'513.1
2017-Nov-10 02:30N 32°11' W 010°21'712.7
2017-Nov-10 01:59N 32°17' W 010°17'613.0
2017-Nov-10 01:30N 32°21' W 010°12'713.3
2017-Nov-10 01:00N 32°26' W 010°06'  

Dump ship's entire track history